Feni, Bangladesh

4:58 PM BDT on July 29, 2016 (GMT +0600)
M.A. Hannan International | | Change Station

Elev 13 ft 22.27 °N, 91.82 °E | Updated 58 minutes ago

Mostly Cloudy
Mostly Cloudy
88 °F
Feels Like 102 °F
N
12
Wind Variable Wind from NW

Today
High -- | Low -- °F
--% Chance of Precip.
Yesterday
High -- | Low -- °F
Precip. -- in
Pressure 29.56 in
Visibility 3.1 miles
Clouds Scattered Clouds 1800 ft
Few 3000 ft
Mostly Cloudy 9000 ft
Heat Index 102 °F
Dew Point 79 °F
Humidity 75%
Rainfall 0.00 in
Snow Depth Not available.
5:23 AM 6:37 PM
Waning Crescent, 23% visible
METAR VGEG 291000Z 32010KT 5000 SCT018 FEW030CB BKN090 31/26 Q1001 NOSIG
Pressure 29.56 in
Visibility 3.1 miles
Clouds Scattered Clouds 1800 ft
Few 3000 ft
Mostly Cloudy 9000 ft
Heat Index 102 °F
Dew Point 79 °F
Humidity 75%
Rainfall 0.00 in
Snow Depth Not available.
5:23 AM 6:37 PM
Waning Crescent, 23% visible
METAR VGEG 291000Z 32010KT 5000 SCT018 FEW030CB BKN090 31/26 Q1001 NOSIG

10-Day Weather Forecast

No radar image for this location.
×

Almanac

Astronomy

Jul. 29, 2016 Rise Set
Actual Time
Civil Twilight
Nautical Twilight
Astronomical Twilight
Moon
Length of Visible Light
Length of Day
Tomorrow will be .
, % of the Moon is Illuminated

Today's Extremes

Country Highs Country Lows

Community

WunderPhotos

Upload Photos

1,928,311 photos uploaded!

WunderBlog® & News

Nearby

Air Quality

  Air Quality AQ Index Pollutant
Not available.

Snow Depth

Station Depth Elevation

Earthquake Activity

City Distance Mag. Time & Date
Minimum magnitude displayed is 2.5.

Coastal Water Temperatures

Place Temperature

Stations

Nearby Weather Stations

Station Location Temp. Windchill Dew Point Humidity Wind Precip. Elev Updated Type